createdAt,value
2023-03-20T00:01:56.191Z,2.00
2023-03-20T00:04:22.985Z,2.30
2023-03-20T00:06:49.425Z,2.47
2023-03-20T00:09:15.823Z,2.53
2023-03-20T00:11:51.103Z,3.33
2023-03-20T00:14:20.540Z,2.60
2023-03-20T00:16:49.044Z,2.45
2023-03-20T00:19:24.432Z,2.33
2023-03-20T00:21:52.101Z,3.22
2023-03-20T00:24:18.922Z,2.25
2023-03-20T00:26:47.010Z,2.25
2023-03-20T00:29:24.224Z,2.60
2023-03-20T00:31:51.335Z,2.53
2023-03-20T00:34:19.885Z,2.15
2023-03-20T00:36:47.150Z,2.20
2023-03-20T00:39:13.693Z,2.30
2023-03-20T00:41:49.057Z,2.33
2023-03-20T00:44:20.630Z,3.00
2023-03-20T00:46:51.987Z,2.83
2023-03-20T00:49:24.626Z,3.20
2023-03-20T00:51:51.029Z,2.08
2023-03-20T00:54:17.796Z,2.58
2023-03-20T00:57:06.662Z,2.28
2023-03-20T00:59:43.277Z,2.20
2023-03-20T01:02:14.790Z,1.90
2023-03-20T01:04:42.529Z,2.28
2023-03-20T01:07:14.502Z,2.50
2023-03-20T01:09:41.658Z,2.30
2023-03-20T01:12:10.580Z,2.20
2023-03-20T01:14:37.040Z,2.20
2023-03-20T01:17:03.879Z,2.83
2023-03-20T01:19:30.405Z,2.03
2023-03-20T01:21:56.821Z,2.63
2023-03-20T01:24:23.244Z,2.20
2023-03-20T01:26:51.737Z,2.33
2023-03-20T01:29:19.872Z,2.10
2023-03-20T01:31:47.132Z,2.33
2023-03-20T01:34:13.692Z,2.00
2023-03-20T01:36:40.455Z,2.22
2023-03-20T01:39:06.903Z,2.35
2023-03-20T01:41:33.418Z,2.03
2023-03-20T01:44:17.002Z,2.30
2023-03-20T01:46:43.845Z,2.88
2023-03-20T01:49:19.447Z,3.22
2023-03-20T01:51:47.236Z,2.10
2023-03-20T01:54:37.623Z,2.13
2023-03-20T01:57:12.495Z,2.13
2023-03-20T01:59:47.481Z,2.20
2023-03-20T02:02:21.470Z,2.45
2023-03-20T02:04:53.131Z,2.70
2023-03-20T02:07:23.299Z,2.40
2023-03-20T02:09:50.856Z,2.20
2023-03-20T02:12:18.340Z,9.75
2023-03-20T02:14:46.935Z,6.90
2023-03-20T02:17:14.164Z,2.42
2023-03-20T02:19:52.913Z,2.00
2023-03-20T02:22:33.198Z,1.90
2023-03-20T02:25:27.560Z,2.33
2023-03-20T02:28:12.550Z,1.70
2023-03-20T02:30:56.926Z,1.67
2023-03-20T02:34:22.420Z,2.10
2023-03-20T02:37:07.624Z,1.90
2023-03-20T02:39:40.297Z,2.05
2023-03-20T02:42:11.044Z,1.85
2023-03-20T02:44:58.861Z,1.88
2023-03-20T02:47:49.983Z,1.90
2023-03-20T02:50:31.975Z,1.80
2023-03-20T02:53:06.681Z,1.73
2023-03-20T02:55:44.059Z,1.80
2023-03-20T02:58:26.646Z,1.50
2023-03-20T03:01:03.591Z,1.90
2023-03-20T03:03:38.282Z,2.20
2023-03-20T03:06:18.875Z,1.80
2023-03-20T03:08:52.611Z,2.00
2023-03-20T03:11:19.064Z,1.50
2023-03-20T03:13:52.105Z,2.45
2023-03-20T03:16:24.315Z,2.35
2023-03-20T03:19:01.700Z,1.92
2023-03-20T03:21:30.393Z,1.83
2023-03-20T03:23:56.852Z,1.90
2023-03-20T03:26:31.463Z,1.75
2023-03-20T03:29:03.860Z,1.50
2023-03-20T03:31:32.717Z,1.60
2023-03-20T03:34:01.385Z,1.70
2023-03-20T03:36:41.381Z,2.20
2023-03-20T03:39:27.943Z,3.50
2023-03-20T03:42:11.501Z,4.05
2023-03-20T03:44:59.645Z,2.95
2023-03-20T03:47:35.487Z,2.90
2023-03-20T03:50:14.400Z,2.55
2023-03-20T03:52:43.481Z,2.35
2023-03-20T03:55:24.377Z,2.72
2023-03-20T03:57:58.155Z,2.97
2023-03-20T04:00:27.343Z,1.95
2023-03-20T04:02:56.415Z,1.77
2023-03-20T04:05:25.297Z,2.00
2023-03-20T04:07:56.540Z,2.10
2023-03-20T04:10:23.006Z,2.28
2023-03-20T04:12:49.664Z,2.38
2023-03-20T04:15:16.989Z,2.67
2023-03-20T04:17:44.557Z,2.90
2023-03-20T04:20:12.475Z,2.80
2023-03-20T04:22:39.193Z,2.25
2023-03-20T04:25:07.897Z,1.80
2023-03-20T04:27:34.324Z,2.05
2023-03-20T04:30:00.738Z,1.80
2023-03-20T04:32:27.224Z,2.00
2023-03-20T04:34:53.665Z,1.95
2023-03-20T04:37:20.221Z,1.80
2023-03-20T04:39:47.633Z,1.50
2023-03-20T04:42:15.676Z,1.70
2023-03-20T04:44:42.082Z,1.80
2023-03-20T04:47:08.567Z,1.90
2023-03-20T04:49:35.361Z,2.08
2023-03-20T04:52:01.915Z,2.17
2023-03-20T04:54:28.445Z,2.33
2023-03-20T04:56:54.881Z,2.15
2023-03-20T04:59:21.409Z,2.20
2023-03-20T05:01:47.953Z,2.15
2023-03-20T05:04:14.437Z,2.03
2023-03-20T05:06:42.054Z,2.28
2023-03-20T05:09:08.453Z,2.25
2023-03-20T05:11:34.873Z,1.75
2023-03-20T05:14:05.297Z,2.72
2023-03-20T05:16:31.737Z,2.00
2023-03-20T05:18:58.168Z,2.13
2023-03-20T05:21:25.822Z,3.00
2023-03-20T05:23:52.344Z,2.38
2023-03-20T05:26:18.782Z,2.95
2023-03-20T05:28:45.272Z,2.50
2023-03-20T05:31:11.976Z,2.63
2023-03-20T05:33:38.850Z,2.75
2023-03-20T05:36:06.280Z,1.92
2023-03-20T05:38:32.864Z,2.78
2023-03-20T05:41:01.424Z,1.90
2023-03-20T05:43:29.145Z,2.00
2023-03-20T05:45:56.662Z,1.88
2023-03-20T05:48:23.899Z,1.77
2023-03-20T05:50:50.519Z,2.28
2023-03-20T05:53:17.063Z,2.22
2023-03-20T05:55:44.712Z,2.33
2023-03-20T05:58:12.081Z,1.95
2023-03-20T06:00:39.453Z,2.00
2023-03-20T06:03:06.988Z,1.88
2023-03-20T06:05:34.627Z,1.90
2023-03-20T06:08:01.708Z,2.03
2023-03-20T06:10:30.088Z,2.67
2023-03-20T06:12:58.136Z,2.67
2023-03-20T06:15:24.846Z,4.93
2023-03-20T06:17:51.307Z,4.65
2023-03-20T06:20:17.928Z,5.35
2023-03-20T06:22:46.061Z,4.50
2023-03-20T06:25:13.049Z,3.72
2023-03-20T06:27:39.809Z,3.85
2023-03-20T06:30:06.732Z,3.00
2023-03-20T06:32:33.232Z,2.28
2023-03-20T06:34:59.699Z,2.10
2023-03-20T06:37:26.170Z,2.58
2023-03-20T06:39:52.598Z,2.72
2023-03-20T06:42:21.263Z,3.22
2023-03-20T06:44:47.741Z,4.40
2023-03-20T06:47:14.536Z,4.53
2023-03-20T06:49:41.897Z,6.40
2023-03-20T06:52:16.495Z,5.10
2023-03-20T06:54:43.608Z,5.35
2023-03-20T06:57:13.935Z,4.85
2023-03-20T06:59:41.562Z,5.15
2023-03-20T07:02:09.881Z,4.38
2023-03-20T07:04:37.155Z,5.68
2023-03-20T07:07:03.687Z,5.00
2023-03-20T07:09:30.351Z,5.00
2023-03-20T07:11:56.751Z,6.50
2023-03-20T07:14:23.295Z,8.13
2023-03-20T07:16:49.772Z,9.57
2023-03-20T07:19:16.442Z,7.05
2023-03-20T07:21:43.756Z,7.28
2023-03-20T07:24:10.198Z,10.73
2023-03-20T07:26:36.785Z,7.22
2023-03-20T07:29:03.360Z,7.32
2023-03-20T07:31:31.171Z,8.45
2023-03-20T07:33:58.247Z,8.52
2023-03-20T07:36:24.902Z,8.75
2023-03-20T07:38:51.458Z,10.05
2023-03-20T07:41:17.956Z,9.23
2023-03-20T07:43:44.914Z,8.52
2023-03-20T07:46:11.528Z,8.75
2023-03-20T07:48:38.050Z,7.85
2023-03-20T07:51:05.097Z,8.18
2023-03-20T07:53:31.656Z,8.50
2023-03-20T07:55:58.142Z,8.45
2023-03-20T07:58:24.668Z,8.35
2023-03-20T08:00:51.072Z,8.65
2023-03-20T08:03:17.656Z,8.80
2023-03-20T08:05:47.125Z,8.63
2023-03-20T08:08:14.650Z,8.18
2023-03-20T08:10:41.441Z,9.68
2023-03-20T08:13:07.868Z,8.70
2023-03-20T08:15:34.796Z,8.88
2023-03-20T08:18:01.550Z,9.27
2023-03-20T08:20:28.897Z,9.50
2023-03-20T08:22:55.448Z,7.75
2023-03-20T08:25:21.911Z,8.75
2023-03-20T08:27:49.318Z,6.85
2023-03-20T08:30:16.088Z,7.88
2023-03-20T08:32:42.856Z,7.50
2023-03-20T08:35:25.727Z,9.25
2023-03-20T08:37:56.315Z,7.30
2023-03-20T08:40:23.014Z,8.20
2023-03-20T08:42:49.476Z,6.93
2023-03-20T08:45:17.019Z,7.53
2023-03-20T08:47:43.620Z,7.97
2023-03-20T08:50:11.120Z,7.35
2023-03-20T08:52:37.581Z,7.10
2023-03-20T08:55:04.225Z,6.53
2023-03-20T08:57:31.674Z,7.00
2023-03-20T08:59:58.076Z,6.13
2023-03-20T09:02:24.682Z,6.50
2023-03-20T09:04:52.672Z,6.47
2023-03-20T09:07:19.075Z,6.88
2023-03-20T09:09:45.672Z,6.35
2023-03-20T09:12:12.113Z,6.53
2023-03-20T09:14:38.594Z,7.03
2023-03-20T09:17:05.983Z,6.15
2023-03-20T09:19:32.560Z,5.68
2023-03-20T09:21:59.843Z,6.78
2023-03-20T09:24:26.963Z,6.43
2023-03-20T09:26:53.455Z,7.00
2023-03-20T09:29:19.915Z,6.45
2023-03-20T09:31:46.475Z,6.40
2023-03-20T09:34:12.901Z,5.70
2023-03-20T09:36:39.424Z,5.97
2023-03-20T09:39:05.818Z,6.80
2023-03-20T09:41:48.897Z,5.38
2023-03-20T09:44:46.992Z,6.00
2023-03-20T09:47:25.455Z,5.93
2023-03-20T09:50:04.157Z,5.55
2023-03-20T09:52:34.887Z,5.82
2023-03-20T09:55:12.328Z,4.77
2023-03-20T09:57:45.438Z,4.80
2023-03-20T10:00:21.112Z,5.50
2023-03-20T10:03:01.742Z,4.65
2023-03-20T10:05:31.430Z,5.07
2023-03-20T10:08:03.361Z,4.28
2023-03-20T10:10:42.469Z,4.32
2023-03-20T10:13:32.885Z,5.22
2023-03-20T10:16:18.241Z,4.68
2023-03-20T10:19:19.546Z,4.60
2023-03-20T10:21:49.423Z,4.10
2023-03-20T10:24:33.845Z,4.07
2023-03-20T10:27:11.295Z,4.75
2023-03-20T10:29:52.272Z,4.40
2023-03-20T10:32:35.013Z,4.32
2023-03-20T10:35:17.389Z,4.30
2023-03-20T10:38:20.994Z,4.95
2023-03-20T10:40:47.938Z,4.75
2023-03-20T10:43:43.314Z,4.20
2023-03-20T10:46:20.203Z,3.88
2023-03-20T10:48:52.348Z,4.47
2023-03-20T10:51:22.333Z,4.35
2023-03-20T10:53:56.510Z,4.20
2023-03-20T10:56:47.357Z,3.78
2023-03-20T10:59:25.378Z,3.47
2023-03-20T11:01:52.606Z,3.53
2023-03-20T11:04:19.478Z,3.75
2023-03-20T11:07:07.031Z,2.88
2023-03-20T11:09:34.268Z,3.47
2023-03-20T11:12:02.395Z,2.65
2023-03-20T11:14:38.910Z,3.50
2023-03-20T11:17:06.293Z,2.97
2023-03-20T11:19:35.719Z,2.80
2023-03-20T11:22:24.065Z,2.83
2023-03-20T11:25:01.672Z,3.03
2023-03-20T11:27:31.340Z,3.17
2023-03-20T11:30:00.236Z,3.45
2023-03-20T11:32:47.373Z,2.97
2023-03-20T11:35:25.685Z,2.67
2023-03-20T11:37:54.661Z,2.80
2023-03-20T11:40:32.340Z,2.70
2023-03-20T11:43:01.826Z,2.70
2023-03-20T11:45:50.654Z,2.40
2023-03-20T11:48:26.093Z,3.08
2023-03-20T11:51:03.530Z,2.85
2023-03-20T11:53:35.261Z,2.72
2023-03-20T11:56:25.280Z,2.88
2023-03-20T11:58:57.443Z,2.17
2023-03-20T12:01:26.099Z,2.75
2023-03-20T12:04:02.270Z,2.63
2023-03-20T12:06:42.693Z,2.22
2023-03-20T12:09:44.555Z,2.60
2023-03-20T12:12:48.669Z,2.30
2023-03-20T12:15:37.048Z,1.92
2023-03-20T12:18:09.424Z,1.83
2023-03-20T12:21:07.807Z,2.00
2023-03-20T12:24:02.300Z,1.90
2023-03-20T12:26:36.673Z,1.60
2023-03-20T12:29:24.717Z,1.98
2023-03-20T12:32:02.500Z,1.92
2023-03-20T12:34:39.801Z,1.75
2023-03-20T12:37:10.503Z,1.42
2023-03-20T12:39:41.501Z,1.70
2023-03-20T12:42:32.112Z,1.75
2023-03-20T12:45:05.972Z,1.80
2023-03-20T12:47:47.315Z,1.58
2023-03-20T12:50:42.873Z,1.45
2023-03-20T12:53:37.309Z,1.52
2023-03-20T12:56:22.403Z,1.88
2023-03-20T12:59:16.955Z,1.77
2023-03-20T13:01:58.317Z,1.50
2023-03-20T13:04:50.052Z,1.25
2023-03-20T13:07:21.858Z,1.15
2023-03-20T13:10:16.640Z,1.00
2023-03-20T13:13:07.812Z,1.40
2023-03-20T13:15:59.316Z,1.17
2023-03-20T13:18:50.843Z,1.85
2023-03-20T13:21:27.534Z,1.08
2023-03-20T13:24:09.957Z,1.50
2023-03-20T13:26:41.596Z,1.40
2023-03-20T13:29:16.566Z,1.10
2023-03-20T13:31:53.502Z,1.17
2023-03-20T13:34:47.939Z,1.38
2023-03-20T13:37:39.460Z,1.20
2023-03-20T13:40:24.433Z,1.20
2023-03-20T13:43:21.121Z,1.08
2023-03-20T13:45:52.076Z,1.05
2023-03-20T13:48:36.343Z,0.98
2023-03-20T13:51:10.858Z,1.10
2023-03-20T13:54:15.389Z,1.35
2023-03-20T13:57:19.579Z,1.30
2023-03-20T14:00:18.598Z,1.10
2023-03-20T14:03:24.623Z,1.30
2023-03-20T14:05:52.327Z,1.35
2023-03-20T14:08:33.434Z,1.15
2023-03-20T14:11:25.060Z,1.30
2023-03-20T14:13:56.389Z,1.15
2023-03-20T14:16:22.968Z,1.20
2023-03-20T14:19:04.708Z,1.10
2023-03-20T14:24:03.115Z,1.20
2023-03-20T14:26:34.561Z,1.40
2023-03-20T14:29:21.069Z,1.10
2023-03-20T14:31:52.239Z,1.20
2023-03-20T14:34:24.755Z,1.40
2023-03-20T14:36:59.791Z,1.48
2023-03-20T14:39:50.605Z,1.40
2023-03-20T14:42:32.151Z,1.45
2023-03-20T14:45:13.837Z,1.95
2023-03-20T14:48:02.544Z,1.40
2023-03-20T14:50:47.030Z,1.52
2023-03-20T14:53:16.645Z,1.40
2023-03-20T14:55:49.124Z,1.40
2023-03-20T14:58:43.862Z,1.48
2023-03-20T15:01:21.648Z,1.70
2023-03-20T15:03:52.720Z,1.40
2023-03-20T15:06:22.122Z,1.15
2023-03-20T15:09:10.616Z,1.55
2023-03-20T15:11:37.677Z,1.27
2023-03-20T15:14:09.110Z,1.15
2023-03-20T15:16:37.415Z,1.13
2023-03-20T15:19:17.507Z,1.20
2023-03-20T15:21:45.299Z,1.30
2023-03-20T15:24:23.067Z,1.40
2023-03-20T15:26:55.757Z,1.40
2023-03-20T15:29:23.796Z,1.30
2023-03-20T15:32:12.775Z,1.30
2023-03-20T15:34:41.598Z,1.40
2023-03-20T15:37:15.052Z,1.38
2023-03-20T15:39:45.411Z,1.60
2023-03-20T15:42:21.813Z,1.40
2023-03-20T15:44:50.383Z,1.70
2023-03-20T15:47:21.218Z,1.83
2023-03-20T15:49:56.078Z,1.65
2023-03-20T15:52:52.685Z,1.60
2023-03-20T15:55:23.050Z,1.63
2023-03-20T15:57:52.714Z,1.80
2023-03-20T16:00:32.609Z,1.80
2023-03-20T16:03:02.190Z,1.90
2023-03-20T16:05:30.409Z,2.00
2023-03-20T16:07:57.244Z,1.80
2023-03-20T16:10:36.067Z,1.73
2023-03-20T16:13:04.333Z,1.73
2023-03-20T16:15:32.886Z,1.50
2023-03-20T16:18:02.425Z,1.60
2023-03-20T16:20:37.514Z,1.67
2023-03-20T16:23:07.442Z,1.90
2023-03-20T16:25:38.215Z,2.00
2023-03-20T16:28:08.817Z,1.77
2023-03-20T16:30:36.195Z,2.00
2023-03-20T16:33:11.213Z,2.00
2023-03-20T16:35:44.995Z,2.00
2023-03-20T16:38:30.736Z,2.25
2023-03-20T16:41:33.704Z,2.10
2023-03-20T16:44:08.713Z,1.70
2023-03-20T16:46:35.368Z,2.20
2023-03-20T16:49:39.495Z,2.58
2023-03-20T16:52:14.636Z,2.05
2023-03-20T16:54:41.141Z,1.80
2023-03-20T16:57:17.084Z,1.88
2023-03-20T16:59:43.743Z,1.60
2023-03-20T17:02:32.585Z,1.70
2023-03-20T17:05:06.299Z,1.60
2023-03-20T17:07:32.802Z,1.67
2023-03-20T17:09:59.763Z,1.50
2023-03-20T17:12:31.071Z,1.50
2023-03-20T17:14:57.540Z,2.00
2023-03-20T17:17:25.945Z,1.42
2023-03-20T17:19:53.117Z,1.95
2023-03-20T17:22:25.613Z,1.92
2023-03-20T17:24:52.573Z,1.73
2023-03-20T17:27:21.060Z,2.00
2023-03-20T17:29:49.673Z,1.70
2023-03-20T17:32:19.097Z,2.00
2023-03-20T17:34:45.838Z,1.90
2023-03-20T17:37:22.464Z,2.00
2023-03-20T17:39:48.969Z,1.95
2023-03-20T17:42:21.078Z,2.25
2023-03-20T17:44:48.215Z,2.45
2023-03-20T17:47:20.959Z,2.58
2023-03-20T17:49:48.752Z,2.10
2023-03-20T17:52:18.918Z,2.20
2023-03-20T17:54:46.403Z,2.25
2023-03-20T17:57:18.974Z,2.15
2023-03-20T17:59:45.522Z,2.05
2023-03-20T18:02:12.060Z,1.92
2023-03-20T18:04:38.830Z,1.92
2023-03-20T18:07:07.112Z,2.40
2023-03-20T18:09:33.691Z,2.13
2023-03-20T18:12:00.457Z,2.20
2023-03-20T18:14:26.994Z,2.72
2023-03-20T18:16:53.425Z,2.78
2023-03-20T18:19:29.481Z,2.25
2023-03-20T18:21:57.323Z,2.28
2023-03-20T18:24:24.182Z,2.33
2023-03-20T18:26:52.182Z,2.30
2023-03-20T18:29:19.664Z,2.50
2023-03-20T18:31:48.258Z,3.08
2023-03-20T18:34:15.223Z,5.85
2023-03-20T18:36:42.449Z,4.03
2023-03-20T18:39:21.605Z,2.60
2023-03-20T18:41:48.750Z,2.45
2023-03-20T18:44:15.729Z,2.35
2023-03-20T18:46:42.997Z,2.08
2023-03-20T18:49:17.350Z,2.15
2023-03-20T18:51:44.731Z,2.22
2023-03-20T18:54:11.511Z,2.63
2023-03-20T18:56:38.102Z,2.10
2023-03-20T18:59:07.798Z,3.30
2023-03-20T19:01:36.063Z,2.60
2023-03-20T19:04:03.242Z,3.00
2023-03-20T19:06:32.012Z,2.50
2023-03-20T19:08:58.649Z,2.67
2023-03-20T19:11:25.162Z,2.30
2023-03-20T19:13:53.452Z,2.20
2023-03-20T19:16:28.966Z,2.70
2023-03-20T19:18:58.932Z,2.30
2023-03-20T19:21:28.874Z,2.50
2023-03-20T19:24:00.558Z,2.28
2023-03-20T19:28:57.863Z,2.40
2023-03-20T19:31:25.640Z,2.40
2023-03-20T19:33:52.681Z,2.63
2023-03-20T19:36:34.359Z,2.92
2023-03-20T19:39:02.606Z,3.28
2023-03-20T19:41:29.580Z,2.42
2023-03-20T19:43:57.487Z,3.35
2023-03-20T19:46:39.063Z,3.50
2023-03-20T19:49:06.715Z,4.07
2023-03-20T19:51:33.789Z,3.85
2023-03-20T19:54:00.659Z,4.70
2023-03-20T19:56:28.279Z,5.00
2023-03-20T19:58:55.020Z,4.95
2023-03-20T20:01:24.828Z,4.85
2023-03-20T20:03:53.475Z,4.47
2023-03-20T20:06:22.222Z,4.07
2023-03-20T20:08:49.914Z,3.05
2023-03-20T20:11:18.663Z,3.40
2023-03-20T20:14:07.232Z,3.20
2023-03-20T20:16:33.561Z,2.60
2023-03-20T20:19:00.440Z,2.20
2023-03-20T20:24:15.994Z,2.80
2023-03-20T20:26:53.362Z,2.60
2023-03-20T20:29:21.496Z,2.30
2023-03-20T20:31:48.027Z,3.25
2023-03-20T20:35:14.833Z,3.90
2023-03-20T20:39:48.123Z,3.42
2023-03-20T20:42:14.680Z,3.95
2023-03-20T20:44:41.339Z,3.42
2023-03-20T20:47:09.060Z,3.70
2023-03-20T20:49:36.110Z,3.88
2023-03-20T20:52:02.585Z,3.30
2023-03-20T20:54:29.242Z,2.70
2023-03-20T20:56:56.194Z,2.92
2023-03-20T20:59:23.001Z,2.92
2023-03-20T21:01:50.620Z,2.30
2023-03-20T21:04:17.289Z,2.22
2023-03-20T21:07:08.137Z,2.67
2023-03-20T21:09:30.604Z,2.58
2023-03-20T21:11:57.075Z,2.35
2023-03-20T21:14:23.646Z,2.50
2023-03-20T21:16:50.256Z,2.70
2023-03-20T21:19:16.892Z,3.30
2023-03-20T21:21:43.329Z,3.45
2023-03-20T21:24:30.605Z,3.40
2023-03-20T21:26:59.269Z,3.80
2023-03-20T21:29:26.049Z,3.25
2023-03-20T21:31:53.705Z,4.18
2023-03-20T21:34:20.670Z,4.60
2023-03-20T21:36:49.178Z,4.93
2023-03-20T21:39:16.507Z,4.60
2023-03-20T21:41:43.029Z,4.10
2023-03-20T21:44:16.662Z,4.32
2023-03-20T21:47:19.076Z,4.50
2023-03-20T21:56:10.350Z,3.92
2023-03-20T22:04:31.561Z,4.75
2023-03-20T22:26:49.098Z,3.72
2023-03-20T22:32:16.211Z,4.25
2023-03-20T22:40:42.133Z,4.07
2023-03-20T22:43:39.027Z,3.97
2023-03-20T22:45:26.804Z,3.90
2023-03-20T22:47:55.474Z,3.97
2023-03-20T22:50:22.096Z,3.60
2023-03-20T22:52:49.874Z,2.85
2023-03-20T22:55:17.593Z,2.72
2023-03-20T22:57:56.207Z,2.80
2023-03-20T23:00:27.111Z,2.65
2023-03-20T23:02:57.376Z,2.75
2023-03-20T23:05:29.913Z,2.92
2023-03-20T23:07:56.471Z,2.60
2023-03-20T23:10:23.811Z,2.92
2023-03-20T23:12:50.301Z,3.22
2023-03-20T23:15:16.888Z,3.53
2023-03-20T23:17:43.339Z,3.03
2023-03-20T23:20:14.897Z,2.72
2023-03-20T23:22:43.326Z,2.58
2023-03-20T23:25:30.743Z,2.80
2023-03-20T23:27:58.910Z,2.67
2023-03-20T23:30:30.916Z,2.70
2023-03-20T23:33:06.329Z,2.80
2023-03-20T23:35:32.958Z,3.72
2023-03-20T23:37:59.486Z,3.90
2023-03-20T23:40:25.974Z,3.70
2023-03-20T23:42:52.451Z,3.95
2023-03-20T23:45:20.801Z,3.85
2023-03-20T23:47:49.462Z,3.80
2023-03-20T23:50:27.717Z,4.82
2023-03-20T23:53:09.577Z,4.05
2023-03-20T23:55:45.269Z,3.97
2023-03-20T23:58:12.313Z,3.50
